createdAt,value
2022-12-22T00:07:42.661Z,13.00
2022-12-22T00:12:19.800Z,13.00
2022-12-22T00:16:58.650Z,13.00
2022-12-22T00:21:37.783Z,13.00
2022-12-22T00:45:47.534Z,13.00
2022-12-22T00:55:52.848Z,12.90
2022-12-22T01:05:04.382Z,12.90
2022-12-22T01:10:01.761Z,12.90
2022-12-22T01:14:47.356Z,13.00
2022-12-22T01:19:14.280Z,13.00
2022-12-22T01:23:42.445Z,13.00
2022-12-22T01:33:19.477Z,12.90
2022-12-22T01:38:03.134Z,12.90
2022-12-22T01:42:36.340Z,12.90
2022-12-22T01:47:09.418Z,12.90
2022-12-22T01:51:39.817Z,12.90
2022-12-22T01:56:14.678Z,12.90
2022-12-22T02:00:42.896Z,12.80
2022-12-22T02:05:12.435Z,12.80
2022-12-22T02:10:03.519Z,12.90
2022-12-22T02:14:44.840Z,12.90
2022-12-22T02:19:19.331Z,12.90
2022-12-22T02:24:07.853Z,12.90
2022-12-22T02:28:45.173Z,12.90
2022-12-22T02:33:16.496Z,12.90
2022-12-22T02:37:53.945Z,12.80
2022-12-22T02:42:32.495Z,12.80
2022-12-22T02:52:07.836Z,12.70
2022-12-22T02:56:39.836Z,12.70
2022-12-22T03:01:10.617Z,12.70
2022-12-22T03:05:50.214Z,12.70
2022-12-22T03:10:18.533Z,12.70
2022-12-22T03:14:52.177Z,12.70
2022-12-22T03:19:22.035Z,12.70
2022-12-22T03:23:51.529Z,12.70
2022-12-22T03:28:06.714Z,12.80
2022-12-22T03:32:18.417Z,12.80
2022-12-22T03:36:29.123Z,12.80
2022-12-22T03:40:44.609Z,12.80
2022-12-22T03:45:11.655Z,12.80
2022-12-22T03:49:28.654Z,12.80
2022-12-22T03:53:41.241Z,12.80
2022-12-22T03:58:00.714Z,12.80
2022-12-22T04:02:15.157Z,12.80
2022-12-22T04:06:30.071Z,12.80
2022-12-22T04:11:00.338Z,12.80
2022-12-22T04:15:16.176Z,12.80
2022-12-22T04:19:26.593Z,12.70
2022-12-22T04:23:36.055Z,12.80
2022-12-22T04:27:49.155Z,12.80
2022-12-22T04:32:09.770Z,12.80
2022-12-22T04:36:19.607Z,12.80
2022-12-22T04:40:31.336Z,12.90
2022-12-22T04:44:40.830Z,12.90
2022-12-22T04:48:57.846Z,12.90
2022-12-22T04:53:12.473Z,12.90
2022-12-22T04:57:23.231Z,12.90
2022-12-22T05:01:35.151Z,12.80
2022-12-22T05:05:50.975Z,12.90
2022-12-22T05:10:10.233Z,12.90
2022-12-22T05:14:29.760Z,12.80
2022-12-22T05:18:40.042Z,12.70
2022-12-22T05:22:51.524Z,12.80
2022-12-22T05:27:02.453Z,12.80
2022-12-22T05:31:16.590Z,12.80
2022-12-22T05:35:26.132Z,12.70
2022-12-22T05:39:37.668Z,12.70
2022-12-22T05:43:49.656Z,12.70
2022-12-22T05:47:59.354Z,12.70
2022-12-22T05:52:09.008Z,12.70
2022-12-22T05:56:19.730Z,12.70
2022-12-22T06:00:29.470Z,12.70
2022-12-22T06:04:40.689Z,12.70
2022-12-22T06:08:50.777Z,12.70
2022-12-22T06:13:01.736Z,12.70
2022-12-22T06:17:15.470Z,12.70
2022-12-22T06:21:26.564Z,12.70
2022-12-22T06:25:37.071Z,12.60
2022-12-22T06:29:49.077Z,12.60
2022-12-22T06:33:58.617Z,12.60
2022-12-22T06:38:08.091Z,12.50
2022-12-22T06:42:39.491Z,12.50
2022-12-22T06:46:53.013Z,12.50
2022-12-22T06:51:04.190Z,12.50
2022-12-22T06:55:15.415Z,12.50
2022-12-22T06:59:24.851Z,12.60
2022-12-22T07:03:35.726Z,12.60
2022-12-22T07:07:45.210Z,12.60
2022-12-22T07:11:55.872Z,12.60
2022-12-22T07:16:10.464Z,12.70
2022-12-22T07:20:24.820Z,12.60
2022-12-22T07:24:35.993Z,12.70
2022-12-22T07:28:51.350Z,12.60
2022-12-22T07:33:03.153Z,12.60
2022-12-22T07:37:15.252Z,12.60
2022-12-22T07:41:42.870Z,12.60
2022-12-22T07:45:52.608Z,12.60
2022-12-22T07:50:19.116Z,12.70
2022-12-22T07:54:31.710Z,12.70
2022-12-22T07:58:47.849Z,12.70
2022-12-22T08:02:59.183Z,12.70
2022-12-22T08:07:18.971Z,12.70
2022-12-22T08:11:29.937Z,12.70
2022-12-22T08:15:43.908Z,12.80
2022-12-22T08:19:53.517Z,12.80
2022-12-22T08:24:03.031Z,12.80
2022-12-22T08:28:15.869Z,12.80
2022-12-22T08:32:25.578Z,12.70
2022-12-22T08:36:42.768Z,12.60
2022-12-22T08:40:57.903Z,12.70
2022-12-22T08:45:47.657Z,12.70
2022-12-22T08:50:06.628Z,12.80
2022-12-22T08:54:22.891Z,12.80
2022-12-22T08:58:47.569Z,12.80
2022-12-22T09:03:25.298Z,12.70
2022-12-22T09:13:07.312Z,12.70
2022-12-22T09:22:26.736Z,12.80
2022-12-22T09:26:38.832Z,12.70
2022-12-22T10:35:12.933Z,13.10
2022-12-22T11:09:33.116Z,13.40
2022-12-22T11:31:04.282Z,13.70
2022-12-22T12:10:36.809Z,13.80
2022-12-22T12:32:19.326Z,13.90
2022-12-22T12:37:15.365Z,13.90
2022-12-22T12:47:52.507Z,13.90
2022-12-22T16:07:31.911Z,13.90
2022-12-22T16:28:01.512Z,13.80
2022-12-22T18:06:48.737Z,13.60
2022-12-22T18:11:10.756Z,13.50
2022-12-22T18:24:54.192Z,13.50
2022-12-22T18:49:27.010Z,13.90
2022-12-22T18:53:39.047Z,13.90
2022-12-22T18:57:58.774Z,13.90
2022-12-22T19:02:28.064Z,13.80
2022-12-22T19:06:38.768Z,13.80
2022-12-22T19:10:52.408Z,13.70
2022-12-22T19:15:11.149Z,13.70
2022-12-22T19:19:22.091Z,13.70
2022-12-22T19:23:31.919Z,13.70
2022-12-22T19:27:54.409Z,13.70
2022-12-22T19:32:28.262Z,13.60
2022-12-22T19:36:44.072Z,13.40
2022-12-22T19:45:48.904Z,13.40
2022-12-22T19:49:58.949Z,13.40
2022-12-22T19:54:09.078Z,13.40
2022-12-22T19:58:22.448Z,13.50
2022-12-22T20:02:36.495Z,13.50
2022-12-22T20:20:57.770Z,13.50
2022-12-22T20:25:32.050Z,13.50
2022-12-22T20:29:47.730Z,13.50
2022-12-22T20:38:47.609Z,13.50
2022-12-22T20:43:34.176Z,13.40
2022-12-22T23:00:06.554Z,13.60
2022-12-22T23:05:22.490Z,13.60
2022-12-22T23:10:00.525Z,13.60
2022-12-22T23:31:19.917Z,13.60
